Latest Weather Observations for Macquarie Island

IDT60801

Issued at 3:31 pm EST Saturday 23 May 2015 (issued every 30 minutes, with the page automatically refreshed every 10 minutes)

About weather observations | Map of weather stations | Latest weather observations for TAS | Other Formats
Station Details ID: 300004 Name: MACQUARIE ISLAND Lat: -54.50 Lon: 158.94 Height: 6.0 m
Data from the previous 72 hours. | See also: Recent months at Macquarie Island
Date/Time
EST
Temp
°C
App
Temp
°C
Dew
Point
Rel
Hum
%
Delta-T
°C
Wind Press
QNH
hPa
Press
MSL
hPa
Rain
since 9 am
mm
Dir
 
Spd
km/h
Gust
km/h
Spd
kts
Gust
kts
23/03:30pm 2.2 -14.3 -3.9 64 2.1 W 74 104 40 56 986.9 - 2.0
23/03:00pm 2.3 -13.3 -3.8 64 2.1 W 69 104 37 56 987.0 987.3 2.0
23/02:30pm 2.6 -13.7 -5.3 56 2.5 W 72 115 39 62 986.6 - 2.0
23/02:23pm 2.5 -15.7 -5.1 57 2.5 W 82 115 44 62 986.7 - 2.0
23/02:19pm 2.5 -15.8 -4.2 61 2.2 W 83 98 45 53 986.7 - 2.0
23/02:00pm 1.5 -12.2 -0.9 84 0.9 W 61 85 33 46 986.9 - 2.0
23/01:42pm 0.3 -15.6 -1.9 85 0.8 W 72 109 39 59 987.6 - 1.8
23/01:35pm 1.5 -9.5 -1.7 79 1.1 W 46 98 25 53 986.9 - 1.8
23/01:33pm 1.6 -8.0 -1.3 81 1.0 W 39 65 21 35 986.9 - 1.8
23/01:30pm 1.5 -11.8 -0.9 84 0.9 W 59 91 32 49 986.9 - 1.8
23/01:00pm 1.9 -10.1 -1.2 80 1.1 W 52 96 28 52 987.0 - 0.8
23/12:41pm 1.9 -9.4 -1.2 80 1.1 W 48 82 26 44 987.3 - 0.6
23/12:30pm 3.7 -12.3 -2.3 65 2.1 W 72 91 39 49 986.7 - 0.4
23/12:00pm 2.7 -14.2 -0.9 77 1.3 W 78 100 42 54 987.3 987.6 0.4
23/11:57am 2.1 -15.7 -1.5 77 1.3 W 82 100 44 54 987.4 - 0.4
23/11:54am 2.1 -16.6 -1.7 76 1.3 W 87 100 47 54 987.4 - 0.4
23/11:33am 2.4 -12.5 -1.4 76 1.3 W 67 89 36 48 987.4 - 0.4
23/11:30am 1.8 -12.7 -1.4 79 1.1 W 65 80 35 43 987.5 - 0.4
23/11:28am 1.1 -12.4 -2.3 78 1.2 W 59 78 32 42 987.8 - 0.4
23/11:26am 0.7 -17.4 -2.3 80 1.1 W 83 102 45 55 988.2 - 0.4
23/11:22am 2.0 -17.4 -1.1 80 1.1 W 91 102 49 55 987.8 - 0.4
23/11:00am 1.2 -14.2 -2.2 78 1.2 W 69 91 37 49 988.3 - 0.0
23/10:40am 3.5 -10.8 0.0 78 1.3 W 65 83 35 45 987.8 - 0.0
23/10:30am 4.0 -11.2 0.5 78 1.3 W 70 87 38 47 987.5 - 0.0
23/10:00am 3.9 -10.5 -0.3 74 1.6 W 65 85 35 46 988.0 - 0.0
23/09:30am 3.9 -9.7 -0.5 73 1.6 W 61 83 33 45 988.1 - 0.0
23/09:00am 3.8 -10.2 -0.2 75 1.5 W 63 83 34 45 988.6 988.9 1.8
23/08:34am 3.5 -11.0 -1.1 72 1.7 W 65 91 35 49 988.7 - 1.8
23/08:30am 3.5 -10.9 -0.5 75 1.5 W 65 80 35 43 988.7 - 1.8
23/08:00am 3.0 -11.0 -0.6 77 1.3 W 63 82 34 44 989.4 - 1.8
23/07:30am 3.3 -9.5 -0.2 78 1.3 W 57 76 31 41 989.2 - 1.8
23/07:00am 2.5 -9.8 -0.4 81 1.1 W 54 76 29 41 989.9 - 1.4
23/06:30am 2.9 -10.4 -0.9 76 1.4 W 59 78 32 42 990.2 - 1.4
23/06:00am 3.2 -10.1 -1.0 74 1.5 W 59 78 32 42 990.1 990.4 1.4
23/05:30am 3.2 -9.9 -2.3 67 1.9 W 57 76 31 41 990.6 - 1.4
23/05:00am 2.9 -10.9 -2.0 70 1.7 W 61 83 33 45 990.3 - 1.4
23/04:30am 3.0 -9.4 -1.2 74 1.5 W 54 72 29 39 990.4 - 1.4
23/04:11am 2.3 -9.4 -1.5 76 1.3 W 50 80 27 43 990.6 - 1.4
23/04:00am 2.7 -9.3 -0.9 77 1.3 W 52 65 28 35 990.8 - 1.4
23/03:38am 2.0 -10.8 -1.1 80 1.1 W 56 74 30 40 991.2 - 1.4
23/03:30am 2.4 -12.2 -2.1 72 1.6 W 65 76 35 41 991.3 - 1.4
23/03:28am 2.5 -12.1 -1.8 73 1.5 W 65 76 35 41 991.3 - 1.4
23/03:25am 2.3 -8.7 -1.8 74 1.4 W 46 70 25 38 991.2 - 1.4
23/03:00am 2.1 -8.8 -1.3 78 1.2 W 46 57 25 31 991.8 992.1 1.4
23/02:30am 1.2 -9.9 -2.9 74 1.5 W 46 82 25 44 992.2 - 1.4
23/02:11am 2.5 -10.7 -2.8 68 1.8 W 57 76 31 41 992.1 - 1.4
23/02:00am 2.5 -10.8 -3.6 64 2.0 W 57 74 31 40 992.0 - 1.4
23/01:32am 2.3 -10.4 -3.8 64 2.0 W 54 72 29 39 991.8 - 1.4
23/01:30am 2.4 -10.3 -3.5 65 2.0 W 54 69 29 37 992.0 - 1.4
23/01:00am 1.6 -10.9 -1.8 78 1.2 W 54 72 29 39 991.9 - 1.4
23/12:31am 2.0 -9.0 -1.8 76 1.3 W 46 65 25 35 991.7 - 1.4
23/12:30am 2.0 -9.0 -1.8 76 1.3 W 46 57 25 31 991.8 - 1.4
23/12:00am 1.7 -8.9 -1.9 77 1.3 W 44 56 24 30 992.1 992.4 1.4
 
Date/Time
EST
Temp
°C
App
Temp
°C
Dew
Point
Rel
Hum
%
Delta-T
°C
Wind Press
QNH
hPa
Press
MSL
hPa
Rain
since 9 am
mm
Dir
 
Spd
km/h
Gust
km/h
Spd
kts
Gust
kts
22/11:30pm 1.2 -10.5 -1.7 81 1.0 W 50 74 27 40 992.3 - 1.4
22/11:00pm 2.0 -9.4 -2.1 74 1.4 W 48 70 26 38 992.0 - 1.4
22/10:49pm 2.1 -9.4 -3.2 68 1.8 W 48 72 26 39 991.8 - 1.4
22/10:30pm 1.9 -7.7 -1.7 77 1.3 W 39 50 21 27 992.1 - 1.4
22/10:00pm 1.7 -8.1 -2.8 72 1.5 W 39 69 21 37 992.1 - 1.4
22/09:30pm 0.9 -7.6 -1.5 84 0.8 W 33 61 18 33 991.8 - 1.4
22/09:22pm 0.5 -7.4 -1.6 86 0.8 W 30 61 16 33 991.9 - 1.4
22/09:19pm 0.3 -6.5 -1.9 85 0.8 WSW 24 35 13 19 992.0 - 1.4
22/09:00pm 1.1 -8.9 -1.3 84 0.9 W 41 70 22 38 991.6 991.9 1.2
22/08:34pm 1.0 -10.0 -1.7 82 0.9 W 46 65 25 35 991.3 - 1.2
22/08:30pm 1.0 -10.7 -1.7 82 0.9 W 50 67 27 36 991.4 - 1.2
22/08:00pm -0.5 -13.6 -2.1 89 0.5 W 57 78 31 42 991.8 - 0.6
22/07:32pm 2.1 -8.8 -1.5 77 1.3 W 46 67 25 36 991.1 - 0.6
22/07:30pm 2.1 -8.7 -0.8 81 1.0 W 46 59 25 32 991.1 - 0.6
22/07:00pm 2.2 -8.2 -1.6 76 1.3 W 43 78 23 42 991.4 - 0.6
22/06:59pm 2.5 -7.5 -1.3 76 1.4 W 41 67 22 36 991.3 - 0.6
22/06:30pm 2.0 -8.6 -2.0 75 1.4 W 44 54 24 29 991.4 - 0.6
22/06:00pm 1.8 -8.8 -1.8 77 1.3 W 44 70 24 38 991.6 991.9 0.0
22/05:58pm 2.2 -8.4 -1.6 76 1.3 W 44 63 24 34 991.5 - 0.0
22/05:30pm 2.1 -8.5 -1.9 75 1.4 W 44 57 24 31 991.4 - 0.0
22/05:00pm 3.0 -7.6 -2.1 69 1.8 W 44 57 24 31 991.1 - 0.0
22/04:30pm 2.8 -8.0 -3.7 62 2.2 W 44 54 24 29 991.3 - 0.0
22/04:00pm 2.6 -8.6 -3.9 62 2.2 W 46 57 25 31 991.2 - 0.0
22/03:30pm 2.6 -9.3 -3.5 64 2.1 W 50 65 27 35 991.5 - 0.0
22/03:00pm 2.6 -8.4 -1.7 73 1.5 W 46 57 25 31 991.5 991.8 0.0
22/02:30pm 2.4 -8.4 -0.7 80 1.1 W 46 57 25 31 991.6 - 0.0
22/02:00pm 2.2 -7.2 0.1 86 0.8 W 39 50 21 27 991.5 - 0.0
22/01:35pm 3.5 -7.0 -0.9 73 1.6 WNW 44 69 24 37 991.5 - 0.0
22/01:30pm 3.4 -7.1 -2.5 65 2.1 W 43 54 23 29 991.6 - 0.0
22/01:00pm 3.2 -7.3 -2.5 66 2.0 W 43 52 23 28 992.0 - 0.0
22/12:30pm 3.5 -6.6 -2.7 64 2.2 W 41 50 22 27 992.4 - 0.0
22/12:00pm 2.7 -6.2 -1.6 73 1.5 W 35 46 19 25 992.8 993.1 0.0
22/11:53am 2.5 -6.4 -1.8 73 1.5 W 35 43 19 23 992.9 - 0.0
22/11:30am 1.7 -8.9 -3.0 71 1.6 WSW 43 54 23 29 993.3 - 0.0
22/11:22am 1.9 -9.3 -3.4 68 1.8 WSW 46 54 25 29 993.4 - 0.0
22/11:18am 2.7 -7.8 -2.4 69 1.8 W 43 65 23 35 993.2 - 0.0
22/11:00am 2.7 -6.6 -2.4 69 1.8 W 37 46 20 25 993.2 - 0.0
22/10:31am 3.2 -6.6 -2.7 65 2.0 W 39 65 21 35 993.3 - 0.0
22/10:30am 3.3 -5.8 -3.7 60 2.4 W 35 48 19 26 993.3 - 0.0
22/10:10am 2.6 -5.6 -3.9 62 2.2 W 30 48 16 26 993.5 - 0.0
22/10:00am 3.1 -6.6 -5.5 53 2.8 W 37 46 20 25 993.6 - 0.0
22/09:30am 2.7 -6.1 -4.1 61 2.3 W 33 44 18 24 993.7 - 0.0
22/09:11am 2.6 -7.7 -3.9 62 2.2 W 41 59 22 32 993.7 - 0.0
22/09:00am 2.6 -7.4 -5.3 56 2.6 W 39 54 21 29 993.7 994.0 3.8
22/08:30am 2.3 -8.5 -5.6 56 2.7 W 43 61 23 33 993.5 - 3.8
22/08:00am 2.1 -6.6 -5.1 59 2.4 W 32 52 17 28 993.3 - 3.8
22/07:30am 2.0 -6.1 -6.6 53 2.8 W 28 48 15 26 993.4 - 3.8
22/07:00am 1.8 -6.2 -6.0 56 2.6 W 28 52 15 28 993.0 - 3.8
22/06:30am 2.0 -6.9 -5.2 59 2.4 W 33 59 18 32 992.4 - 3.8
22/06:08am 2.1 -7.2 -5.1 59 2.4 W 35 65 19 35 992.1 - 3.8
22/06:00am 2.2 -4.5 -4.1 63 2.1 W 22 43 12 23 992.2 992.5 3.8
22/05:30am 2.3 -5.5 -4.0 63 2.1 W 28 65 15 35 991.4 - 3.8
22/05:00am 2.2 -8.7 -4.7 60 2.4 W 44 74 24 40 991.3 - 3.8
22/04:51am 2.3 -9.7 -3.6 65 2.0 W 50 69 27 37 990.8 - 3.8
22/04:30am 2.6 -5.0 -1.9 72 1.6 W 28 46 15 25 990.8 - 3.8
22/04:00am 2.0 -10.1 -1.4 78 1.2 W 52 82 28 44 990.6 - 3.8
22/03:30am 2.2 -7.8 -1.4 77 1.3 W 41 78 22 42 990.2 - 3.8
22/03:15am 1.8 -10.1 -0.6 84 0.9 W 52 70 28 38 990.1 - 3.8
22/03:00am 3.0 -9.3 -0.3 79 1.2 W 54 69 29 37 989.9 990.2 3.4
22/02:30am 3.6 -9.3 -1.9 67 2.0 W 56 74 30 40 989.7 - 3.2
22/02:02am 3.8 -9.6 -1.5 68 1.9 W 59 78 32 42 989.8 - 3.2
22/02:00am 3.8 -10.0 -2.0 66 2.1 W 61 78 33 42 989.7 - 3.2
22/01:32am 3.6 -9.4 -1.0 72 1.7 W 57 78 31 42 989.5 - 3.2
22/01:30am 3.6 -9.3 -0.8 73 1.6 W 57 74 31 40 989.5 - 3.2
22/01:00am 3.0 -8.1 0.1 81 1.1 W 48 69 26 37 989.5 - 3.2
22/12:30am 1.7 -10.7 -0.9 83 0.9 W 54 72 29 39 989.7 - 2.8
22/12:04am 2.6 -11.7 0.3 85 0.9 W 65 83 35 45 989.4 - 2.8
22/12:00am 3.1 -11.6 0.3 82 1.1 W 67 83 36 45 989.4 989.7 2.6
 
Date/Time
EST
Temp
°C
App
Temp
°C
Dew
Point
Rel
Hum
%
Delta-T
°C
Wind Press
QNH
hPa
Press
MSL
hPa
Rain
since 9 am
mm
Dir
 
Spd
km/h
Gust
km/h
Spd
kts
Gust
kts
21/11:31pm 4.4 -8.3 0.6 76 1.5 W 57 76 31 41 988.9 - 2.4
21/11:30pm 4.3 -8.8 0.5 76 1.5 W 59 76 32 41 988.9 - 2.4
21/11:08pm 4.3 -8.4 0.6 77 1.4 W 57 76 31 41 988.7 - 2.4
21/11:00pm 4.4 -8.2 1.3 80 1.2 W 57 70 31 38 988.6 - 2.4
21/10:35pm 4.4 -8.6 1.1 79 1.3 W 59 78 32 42 988.6 - 2.4
21/10:30pm 4.4 -9.1 0.7 77 1.4 W 61 78 33 42 988.8 - 2.4
21/10:00pm 3.9 -8.6 1.1 82 1.1 W 56 78 30 42 989.0 - 2.4
21/09:30pm 4.2 -7.4 1.4 82 1.1 W 52 70 28 38 989.0 - 2.4
21/09:02pm 4.2 -7.8 1.7 84 1.0 W 54 72 29 39 989.1 - 2.4
21/09:00pm 4.2 -7.7 1.9 85 0.9 W 54 70 29 38 989.1 989.4 2.4
21/08:30pm 4.1 -7.1 2.1 87 0.8 W 50 69 27 37 989.3 - 2.4
21/08:24pm 4.2 -6.5 2.4 88 0.7 WNW 48 69 26 37 989.1 - 2.4
21/08:15pm 4.1 -5.6 2.6 90 0.6 WNW 43 57 23 31 989.2 - 2.4
21/08:00pm 3.4 -7.7 2.2 92 0.5 NW 50 63 27 34 989.2 - 2.4
21/07:50pm 3.1 -8.4 2.1 93 0.4 NW 52 70 28 38 989.5 - 2.4
21/07:30pm 2.7 -9.7 1.7 93 0.4 NNW 56 65 30 35 989.6 - 2.0
21/07:00pm 2.1 -8.9 0.9 92 0.5 NNW 48 57 26 31 991.1 - 1.2
21/06:30pm 2.0 -8.7 0.2 88 0.7 NW 46 54 25 29 992.3 - 0.4
21/06:00pm 2.6 -7.2 0.0 83 1.0 WNW 41 54 22 29 993.5 993.8 0.2
21/05:30pm 3.2 -6.8 -1.9 69 1.8 WNW 41 50 22 27 994.2 - 0.0
21/05:00pm 3.2 -6.5 -2.3 67 1.9 WNW 39 46 21 25 995.0 - 0.0
21/04:30pm 3.0 -7.1 -2.7 66 2.0 W 41 52 22 28 995.6 - 0.0
21/04:00pm 3.0 -8.3 -4.4 58 2.4 W 46 57 25 31 996.0 - 0.0
21/03:30pm 2.8 -4.9 -3.1 65 2.0 WSW 28 50 15 27 996.1 - 0.0
21/03:25pm 3.1 -8.8 -3.5 62 2.2 W 50 72 27 39 995.9 - 0.0
21/03:00pm 2.8 -7.8 -1.9 71 1.7 W 44 57 24 31 995.8 996.1 0.0
21/02:30pm 2.4 -8.4 -3.3 66 1.9 W 44 54 24 29 996.1 - 0.0
21/02:00pm 2.6 -8.8 -2.1 71 1.6 W 48 67 26 36 996.0 - 0.0
21/01:30pm 2.0 -9.8 -2.3 73 1.5 W 50 70 27 38 995.8 - 0.0
21/01:26pm 2.2 -10.0 -2.3 72 1.6 W 52 70 28 38 995.9 - 0.0
21/01:22pm 2.3 -11.0 -3.8 64 2.0 W 57 70 31 38 995.7 - 0.0
21/01:00pm 2.4 -6.8 -4.6 60 2.3 W 35 67 19 36 995.4 - 0.0
21/12:30pm 1.5 -7.0 -3.6 69 1.8 W 32 54 17 29 995.4 - 0.0
21/12:13pm 1.6 -6.1 -3.1 71 1.6 SW 28 48 15 26 995.3 - 0.0
21/12:00pm 2.9 -7.7 -3.4 63 2.2 W 43 69 23 37 994.7 995.0 0.0
21/11:50am 2.4 -7.7 -5.5 56 2.7 W 39 59 21 32 994.5 - 0.0
21/11:48am 2.4 -6.7 -6.9 50 3.0 SW 33 57 18 31 994.7 - 0.0
21/11:30am 2.6 -7.6 -6.8 50 3.1 W 39 72 21 39 994.6 - 0.0
21/11:15am 2.5 -8.4 -5.8 54 2.8 W 43 82 23 44 994.3 - 0.0
21/11:00am 2.5 -7.3 -6.8 50 3.0 W 37 63 20 34 994.4 - 0.0
21/10:56am 2.4 -7.0 -6.2 53 2.8 W 35 57 19 31 994.3 - 0.0
21/10:46am 2.0 -8.2 -6.8 52 2.8 WSW 39 57 21 31 994.4 - 0.0
21/10:45am 2.0 -8.6 -7.1 51 2.9 SW 41 57 22 31 994.5 - 0.0
21/10:40am 2.2 -8.3 -5.6 56 2.6 W 41 67 22 36 994.1 - 0.0
21/10:30am 1.8 -7.1 -5.1 60 2.3 WSW 33 59 18 32 994.0 - 0.0
21/10:26am 1.8 -6.5 -5.1 60 2.3 WSW 30 57 16 31 994.1 - 0.0
21/10:00am 1.8 -10.6 -8.0 48 3.0 W 50 91 27 49 993.7 - 0.0
21/09:43am 1.9 -9.2 -6.4 54 2.7 W 44 80 24 43 993.0 - 0.0
21/09:34am 1.8 -6.5 -5.1 60 2.3 W 30 59 16 32 993.0 - 0.0
21/09:33am 1.8 -5.4 -5.1 60 2.3 W 24 37 13 20 993.0 - 0.0
21/09:30am 1.9 -8.2 -5.7 57 2.5 WSW 39 78 21 42 993.1 - 0.0
21/09:09am 1.6 -8.6 -6.7 54 2.6 WSW 39 89 21 48 992.5 - 0.0
21/09:00am 1.3 -7.7 -6.0 58 2.4 W 33 61 18 33 992.0 992.3 4.6
21/08:45am 0.9 -9.4 -3.9 70 1.6 W 41 85 22 46 991.9 - 4.6
21/08:43am 1.0 -8.5 -3.5 72 1.6 W 37 67 20 36 991.9 - 4.6
21/08:37am 1.1 -10.5 -3.6 71 1.6 SW 48 70 26 38 991.8 - 4.6
21/08:36am 1.3 -11.7 -3.2 72 1.6 SW 56 70 30 38 991.8 - 4.6
21/08:30am 1.2 -7.5 -3.3 72 1.6 WSW 33 59 18 32 991.4 - 4.6
21/08:24am 0.7 -8.4 -3.9 71 1.5 WSW 35 54 19 29 991.2 - 4.6
21/08:23am 0.7 -9.2 -3.9 71 1.5 WSW 39 54 21 29 991.2 - 4.6
21/08:14am 0.9 -12.7 -3.2 74 1.4 W 59 89 32 48 990.9 - 4.6
21/08:00am 1.2 -9.1 -4.4 66 1.9 WSW 41 74 22 40 990.7 - 4.6
21/07:52am 1.9 -8.0 -4.2 64 2.1 SW 39 69 21 37 990.4 - 4.6
21/07:30am 1.6 -11.7 -3.5 69 1.8 W 57 91 31 49 989.1 - 4.6
21/07:24am 1.6 -10.5 -4.5 64 2.1 W 50 91 27 49 989.3 - 4.6
21/07:16am 1.7 -9.6 -4.4 64 2.1 W 46 69 25 37 989.1 - 4.6
21/07:04am 1.2 -7.8 -2.9 74 1.5 WSW 35 61 19 33 989.0 - 4.6
21/07:00am 0.9 -9.8 -2.3 79 1.1 W 44 80 24 43 988.8 - 4.6
21/06:55am 0.7 -10.3 -2.3 80 1.1 W 46 80 25 43 988.7 - 4.6
21/06:30am 0.8 -10.9 -1.8 83 0.9 WSW 50 74 27 40 988.1 - 4.6
21/06:00am 2.1 -8.4 -2.6 71 1.6 WSW 43 70 23 38 986.8 987.1 4.4
21/05:30am 1.8 -9.6 -2.0 76 1.3 WSW 48 83 26 45 985.7 - 4.4
21/05:00am 1.8 -8.6 -0.3 86 0.8 SW 44 74 24 40 984.5 - 4.4
21/04:56am 2.0 -7.8 0.1 87 0.7 SW 41 74 22 40 984.4 - 4.4
21/04:35am 1.8 -6.2 0.2 89 0.6 WSW 32 56 17 30 983.6 - 4.2
21/04:33am 1.9 -6.1 0.3 89 0.6 SW 32 46 17 25 983.4 - 4.0
21/04:30am 2.1 -8.0 0.6 90 0.6 W 43 65 23 35 983.0 - 4.0
21/04:14am 3.3 -6.3 1.2 86 0.8 W 41 59 22 32 982.3 - 2.6
21/04:00am 3.3 -7.7 1.0 85 0.9 W 48 63 26 34 982.1 - 2.6
21/03:56am 3.5 -6.5 1.1 84 0.9 W 43 63 23 34 982.0 - 2.6
21/03:30am 3.5 -4.3 1.7 88 0.7 W 32 41 17 22 981.4 - 2.4
21/03:00am 3.7 -4.3 1.6 86 0.8 W 33 44 18 24 981.1 981.4 2.2
21/02:30am 3.9 -3.8 2.3 89 0.6 WNW 32 37 17 20 980.8 - 2.2
21/02:00am 3.7 -4.2 2.1 89 0.6 WNW 33 43 18 23 980.7 - 2.2
21/01:30am 3.4 -6.1 1.8 89 0.6 WNW 41 61 22 33 980.5 - 2.0
21/01:25am 3.8 -5.3 2.0 88 0.7 WNW 39 61 21 33 980.3 - 2.0
21/01:00am 3.9 -5.2 1.9 87 0.8 WNW 39 52 21 28 980.1 - 1.8
21/12:30am 4.4 -6.8 1.8 83 1.0 WNW 50 63 27 34 980.0 - 1.6
21/12:00am 4.7 -5.3 1.9 82 1.1 NW 44 56 24 30 979.7 980.0 1.6
 
Date/Time
EST
Temp
°C
App
Temp
°C
Dew
Point
Rel
Hum
%
Delta-T
°C
Wind Press
QNH
hPa
Press
MSL
hPa
Rain
since 9 am
mm
Dir
 
Spd
km/h
Gust
km/h
Spd
kts
Gust
kts
20/11:30pm 4.8 -6.3 2.7 86 0.9 NW 50 63 27 34 979.9 - 1.6
20/11:00pm 4.9 -4.9 3.2 89 0.7 NNW 44 56 24 30 979.8 - 1.6
20/10:32pm 4.3 -8.5 2.7 89 0.6 NNW 59 78 32 42 980.0 - 1.6
20/10:30pm 4.4 -8.7 2.9 90 0.6 NNW 61 78 33 42 980.1 - 1.6
20/10:08pm 4.7 -10.1 3.0 89 0.7 NNW 70 89 38 48 980.1 - 1.2
20/10:00pm 4.9 -9.7 3.2 89 0.7 N 69 83 37 45 980.2 - 1.2
20/09:30pm 4.9 -8.2 3.1 88 0.7 N 61 72 33 39 981.0 - 0.8
20/09:06pm 4.8 -8.7 2.7 86 0.9 N 63 82 34 44 981.7 - 0.4
20/09:00pm 5.1 -8.4 2.8 85 1.0 N 63 76 34 41 982.1 982.4 0.2
20/08:30pm 5.0 -7.8 2.7 85 0.9 N 59 70 32 38 983.0 - 0.2
20/08:00pm 4.7 -8.6 1.9 82 1.1 N 61 72 33 39 984.1 - 0.2
20/07:30pm 4.9 -7.5 1.6 79 1.3 N 56 67 30 36 984.9 - 0.2
20/07:00pm 5.0 -7.7 0.9 75 1.6 NNW 57 69 31 37 985.6 - 0.2
20/06:30pm 4.8 -7.9 0.9 76 1.5 NNW 57 70 31 38 986.4 - 0.2
20/06:00pm 4.7 -7.1 0.7 75 1.6 NNW 52 63 28 34 987.0 987.3 0.2
20/05:30pm 4.3 -8.0 -0.1 73 1.7 NNW 54 65 29 35 987.7 - 0.2
20/05:00pm 4.2 -7.7 -0.4 72 1.7 NNW 52 63 28 34 988.3 - 0.2
20/04:30pm 4.1 -7.8 -0.1 74 1.6 NNW 52 65 28 35 988.8 - 0.2
20/04:00pm 4.1 -7.0 -0.3 73 1.6 NNW 48 57 26 31 989.4 - 0.2

Other Formats:

Comma delimited format used in spreadsheet applications
http://www.bom.gov.au/fwo/IDT60801/IDT60801.94998.axf

JavaScript Object Notation format (JSON) in row-major order
http://www.bom.gov.au/fwo/IDT60801/IDT60801.94998.json